createdAt,value
2019-04-22T00:00:53.567Z,28.43
2019-04-22T00:03:27.401Z,23.60
2019-04-22T00:06:16.502Z,31.00
2019-04-22T00:08:52.214Z,27.00
2019-04-22T00:11:27.194Z,29.57
2019-04-22T00:13:51.986Z,26.40
2019-04-22T00:16:26.419Z,31.83
2019-04-22T00:19:11.348Z,29.50
2019-04-22T00:21:32.904Z,29.73
2019-04-22T00:23:59.861Z,29.33
2019-04-22T00:26:37.546Z,27.03
2019-04-22T00:29:12.153Z,31.43
2019-04-22T00:32:00.839Z,31.20
2019-04-22T00:34:34.138Z,22.53
2019-04-22T00:37:10.938Z,27.33
2019-04-22T00:39:40.924Z,32.03
2019-04-22T00:42:17.899Z,31.57
2019-04-22T00:44:45.629Z,31.00
2019-04-22T00:47:23.443Z,30.17
2019-04-22T00:52:16.649Z,33.00
2019-04-22T00:54:55.669Z,31.53
2019-04-22T00:57:26.883Z,29.03
2019-04-22T00:59:58.591Z,34.73
2019-04-22T01:02:27.965Z,27.83
2019-04-22T01:05:00.912Z,30.13
2019-04-22T01:07:30.421Z,33.73
2019-04-22T01:12:37.442Z,33.20
2019-04-22T01:15:01.057Z,28.60
2019-04-22T01:17:34.474Z,26.20
2019-04-22T01:20:24.473Z,30.40
2019-04-22T01:22:34.309Z,30.63
2019-04-22T01:25:08.770Z,35.53
2019-04-22T01:27:34.460Z,24.27
2019-04-22T01:30:03.688Z,33.07
2019-04-22T01:32:31.130Z,30.43
2019-04-22T01:35:08.369Z,30.20
2019-04-22T01:37:45.756Z,32.00
2019-04-22T01:40:29.379Z,30.80
2019-04-22T01:45:29.038Z,32.30
2019-04-22T01:47:55.385Z,31.87
2019-04-22T01:50:33.764Z,32.47
2019-04-22T01:53:06.774Z,26.40
2019-04-22T01:55:41.717Z,32.30
2019-04-22T01:57:59.509Z,32.87
2019-04-22T02:00:39.588Z,37.07
2019-04-22T02:03:12.266Z,35.90
2019-04-22T02:05:39.426Z,31.10
2019-04-22T02:08:19.847Z,36.07
2019-04-22T02:10:49.284Z,30.17
2019-04-22T02:13:15.434Z,33.10
2019-04-22T02:15:52.447Z,40.43
2019-04-22T02:18:23.411Z,35.23
2019-04-22T02:20:48.496Z,29.93
2019-04-22T02:23:45.839Z,37.07
2019-04-22T02:26:01.252Z,38.37
2019-04-22T02:28:37.608Z,36.37
2019-04-22T02:34:02.851Z,37.47
2019-04-22T02:36:30.525Z,40.20
2019-04-22T02:43:59.531Z,40.63
2019-04-22T02:51:24.341Z,33.33
2019-04-22T02:56:31.557Z,37.67
2019-04-22T03:01:36.911Z,38.67
2019-04-22T03:04:06.823Z,41.57
2019-04-22T03:09:13.908Z,40.93
2019-04-22T03:11:56.642Z,43.77
2019-04-22T03:16:40.645Z,40.13
2019-04-22T03:21:42.272Z,38.43
2019-04-22T03:24:23.700Z,40.57
2019-04-22T03:29:13.337Z,40.50
2019-04-22T03:37:21.361Z,43.23
2019-04-22T03:43:10.598Z,38.07
2019-04-22T03:52:14.774Z,36.83
2019-04-22T03:54:45.771Z,31.90
2019-04-22T04:04:43.312Z,42.50
2019-04-22T04:09:49.318Z,40.67
2019-04-22T04:12:23.682Z,45.03
2019-04-22T04:15:12.327Z,43.87
2019-04-22T04:20:06.121Z,51.57
2019-04-22T04:22:46.064Z,45.17
2019-04-22T04:37:46.947Z,42.80
2019-04-22T04:40:20.658Z,42.67
2019-04-22T04:42:54.203Z,42.93
2019-04-22T04:47:49.270Z,43.00
2019-04-22T04:50:12.155Z,46.03
2019-04-22T04:55:23.994Z,52.63
2019-04-22T05:03:00.636Z,43.23
2019-04-22T05:05:45.808Z,38.23
2019-04-22T05:08:00.515Z,46.60
2019-04-22T05:10:44.864Z,46.07
2019-04-22T05:15:37.391Z,41.10
2019-04-22T05:18:07.219Z,48.07
2019-04-22T05:20:57.318Z,42.87
2019-04-22T05:23:07.079Z,42.43
2019-04-22T05:25:32.342Z,32.67
2019-04-22T05:28:11.862Z,45.93
2019-04-22T05:30:57.188Z,39.23
2019-04-22T05:33:07.320Z,36.80
2019-04-22T05:36:02.680Z,31.03
2019-04-22T05:38:17.718Z,43.17
2019-04-22T05:40:40.867Z,43.53
2019-04-22T05:43:19.128Z,42.63
2019-04-22T05:45:43.012Z,47.40
2019-04-22T05:48:18.381Z,40.97
2019-04-22T05:50:54.287Z,49.10
2019-04-22T05:53:21.245Z,47.67
2019-04-22T05:55:57.131Z,46.40
2019-04-22T05:58:35.697Z,45.57
2019-04-22T06:01:29.030Z,39.43
2019-04-22T06:03:46.089Z,50.70
2019-04-22T06:06:13.702Z,51.37
2019-04-22T06:08:45.605Z,24.10
2019-04-22T06:11:22.782Z,40.63
2019-04-22T06:13:49.253Z,46.37
2019-04-22T06:16:26.314Z,42.27
2019-04-22T06:19:01.022Z,47.60
2019-04-22T06:21:36.012Z,47.23
2019-04-22T06:24:08.243Z,39.33
2019-04-22T06:26:38.572Z,52.80
2019-04-22T06:29:10.393Z,61.27
2019-04-22T06:31:43.224Z,53.97
2019-04-22T06:34:10.601Z,62.37
2019-04-22T06:36:47.797Z,43.10
2019-04-22T06:39:18.961Z,44.03
2019-04-22T06:42:01.001Z,38.73
2019-04-22T06:44:30.907Z,35.53
2019-04-22T06:46:47.477Z,50.33
2019-04-22T06:49:22.756Z,50.83
2019-04-22T06:51:55.573Z,42.07
2019-04-22T06:54:22.070Z,48.00
2019-04-22T06:56:57.655Z,38.63
2019-04-22T06:59:26.480Z,48.33
2019-04-22T07:04:29.702Z,42.00
2019-04-22T07:07:02.258Z,46.40
2019-04-22T07:15:35.532Z,46.57
2019-04-22T07:17:56.849Z,43.13
2019-04-22T07:20:24.239Z,42.27
2019-04-22T07:23:13.860Z,45.03
2019-04-22T07:28:17.625Z,40.53
2019-04-22T07:30:47.220Z,37.43
2019-04-22T07:33:22.896Z,29.37
2019-04-22T07:38:34.483Z,24.90
2019-04-22T07:40:55.454Z,35.73
2019-04-22T07:45:56.894Z,38.43
2019-04-22T07:48:33.468Z,33.73
2019-04-22T07:51:13.512Z,36.10
2019-04-22T07:53:27.888Z,29.87
2019-04-22T07:56:00.154Z,26.00
2019-04-22T07:58:36.136Z,36.70
2019-04-22T08:01:18.467Z,34.07
2019-04-22T08:03:56.534Z,30.77
2019-04-22T08:08:45.115Z,33.20
2019-04-22T08:11:30.633Z,28.50
2019-04-22T08:14:07.646Z,30.23
2019-04-22T08:16:38.166Z,36.77
2019-04-22T08:19:10.451Z,30.60
2019-04-22T08:21:38.470Z,34.63
2019-04-22T08:24:16.522Z,26.83
2019-04-22T08:29:17.493Z,25.27
2019-04-22T08:31:49.141Z,26.47
2019-04-22T08:34:29.842Z,29.07
2019-04-22T08:37:22.767Z,27.17
2019-04-22T08:39:19.906Z,27.43
2019-04-22T08:41:43.805Z,31.60
2019-04-22T08:44:27.856Z,31.83
2019-04-22T08:46:57.918Z,26.07
2019-04-22T08:49:29.968Z,27.57
2019-04-22T08:51:54.971Z,30.13
2019-04-22T08:54:31.156Z,21.70
2019-04-22T08:57:03.401Z,24.77
2019-04-22T08:59:32.625Z,21.07
2019-04-22T09:02:06.399Z,21.40
2019-04-22T09:04:31.161Z,22.23
2019-04-22T09:09:42.914Z,21.53
2019-04-22T09:12:20.108Z,20.60
2019-04-22T09:14:41.686Z,18.67
2019-04-22T09:17:17.635Z,19.33
2019-04-22T09:19:47.420Z,20.70
2019-04-22T09:22:17.143Z,21.00
2019-04-22T09:24:51.768Z,19.57
2019-04-22T09:27:37.080Z,15.67
2019-04-22T09:29:58.422Z,18.33
2019-04-22T09:32:34.438Z,24.27
2019-04-22T09:35:02.720Z,23.93
2019-04-22T09:42:44.031Z,16.93
2019-04-22T09:45:11.614Z,18.17
2019-04-22T09:50:27.501Z,18.03
2019-04-22T09:52:54.755Z,21.47
2019-04-22T09:55:41.478Z,16.13
2019-04-22T09:57:58.973Z,17.93
2019-04-22T10:00:37.391Z,19.37
2019-04-22T10:03:11.850Z,20.07
2019-04-22T10:05:40.713Z,16.93
2019-04-22T10:08:21.010Z,19.73
2019-04-22T10:10:41.495Z,17.60
2019-04-22T10:13:18.697Z,15.07
2019-04-22T10:15:52.214Z,16.97
2019-04-22T10:18:18.828Z,17.43
2019-04-22T10:21:12.330Z,15.73
2019-04-22T10:23:20.212Z,16.73
2019-04-22T10:25:53.703Z,24.63
2019-04-22T10:28:29.610Z,19.30
2019-04-22T10:31:09.955Z,16.60
2019-04-22T10:33:22.442Z,16.63
2019-04-22T10:35:34.416Z,18.83
2019-04-22T10:38:04.043Z,20.03
2019-04-22T10:40:36.441Z,14.70
2019-04-22T10:43:09.393Z,16.40
2019-04-22T10:45:39.803Z,20.70
2019-04-22T10:48:10.445Z,16.73
2019-04-22T10:50:43.074Z,14.47
2019-04-22T10:53:15.415Z,17.77
2019-04-22T10:55:47.756Z,14.07
2019-04-22T10:58:18.586Z,13.13
2019-04-22T11:00:50.258Z,15.60
2019-04-22T11:03:28.038Z,20.43
2019-04-22T11:05:57.102Z,16.33
2019-04-22T11:08:35.015Z,12.47
2019-04-22T11:11:12.286Z,14.83
2019-04-22T11:13:31.625Z,60.80
2019-04-22T11:16:05.580Z,18.83
2019-04-22T11:18:37.858Z,25.23
2019-04-22T11:21:09.503Z,29.47
2019-04-22T11:23:40.683Z,15.20
2019-04-22T11:26:12.032Z,24.60
2019-04-22T11:28:43.307Z,19.70
2019-04-22T11:31:14.689Z,20.63
2019-04-22T11:33:44.911Z,16.53
2019-04-22T11:36:15.800Z,15.50
2019-04-22T11:38:52.325Z,11.40
2019-04-22T11:41:17.416Z,13.10
2019-04-22T11:43:47.414Z,12.53
2019-04-22T11:46:17.676Z,12.70
2019-04-22T11:48:47.809Z,10.77
2019-04-22T11:51:18.233Z,14.27
2019-04-22T11:53:49.104Z,15.03
2019-04-22T11:56:18.958Z,10.73
2019-04-22T11:58:48.973Z,15.70
2019-04-22T12:01:19.254Z,11.97
2019-04-22T12:03:49.588Z,13.17
2019-04-22T12:06:19.931Z,12.87
2019-04-22T12:08:50.071Z,14.60
2019-04-22T12:11:20.685Z,10.23
2019-04-22T12:13:51.826Z,12.87
2019-04-22T12:16:23.200Z,10.90
2019-04-22T12:18:53.494Z,12.13
2019-04-22T12:21:23.493Z,10.83
2019-04-22T12:23:53.224Z,11.53
2019-04-22T12:26:24.984Z,9.73
2019-04-22T12:28:55.091Z,16.73
2019-04-22T12:31:24.822Z,10.43
2019-04-22T12:33:55.179Z,10.73
2019-04-22T12:36:26.479Z,10.63
2019-04-22T12:38:57.671Z,11.03
2019-04-22T12:41:27.834Z,16.03
2019-04-22T12:43:58.885Z,12.47
2019-04-22T12:46:30.132Z,8.93
2019-04-22T12:49:00.324Z,25.20
2019-04-22T12:51:31.352Z,12.83
2019-04-22T12:54:01.412Z,9.17
2019-04-22T12:56:31.128Z,8.80
2019-04-22T12:59:01.380Z,9.90
2019-04-22T13:01:31.365Z,7.90
2019-04-22T13:04:05.750Z,9.57
2019-04-22T13:06:32.890Z,11.27
2019-04-22T13:09:06.241Z,11.00
2019-04-22T13:11:36.968Z,9.40
2019-04-22T13:14:07.490Z,11.30
2019-04-22T13:16:38.555Z,9.10
2019-04-22T13:19:12.863Z,9.20
2019-04-22T13:21:40.662Z,10.33
2019-04-22T13:24:10.978Z,10.97
2019-04-22T13:26:41.148Z,8.57
2019-04-22T13:29:10.880Z,11.43
2019-04-22T13:31:40.610Z,12.97
2019-04-22T13:34:20.048Z,11.40
2019-04-22T13:36:45.361Z,11.80
2019-04-22T13:39:14.720Z,10.77
2019-04-22T13:41:51.734Z,13.47
2019-04-22T13:44:16.729Z,11.93
2019-04-22T13:47:02.096Z,13.87
2019-04-22T13:49:54.151Z,15.30
2019-04-22T13:52:24.531Z,11.53
2019-04-22T13:57:12.388Z,10.20
2019-04-22T13:59:32.269Z,8.80
2019-04-22T14:02:12.957Z,13.73
2019-04-22T14:04:43.355Z,10.57
2019-04-22T14:07:13.435Z,9.00
2019-04-22T14:09:44.526Z,10.80
2019-04-22T14:12:16.299Z,12.63
2019-04-22T14:14:47.195Z,10.77
2019-04-22T14:17:17.035Z,11.10
2019-04-22T14:19:46.964Z,11.47
2019-04-22T14:22:17.815Z,12.47
2019-04-22T14:24:48.849Z,8.80
2019-04-22T14:27:33.450Z,12.60
2019-04-22T14:29:51.477Z,14.20
2019-04-22T14:32:27.345Z,10.93
2019-04-22T14:34:53.256Z,11.57
2019-04-22T14:37:24.299Z,10.30
2019-04-22T14:39:54.169Z,13.43
2019-04-22T14:42:44.026Z,10.70
2019-04-22T14:45:23.249Z,13.93
2019-04-22T14:47:53.987Z,11.80
2019-04-22T14:50:21.820Z,11.50
2019-04-22T14:53:15.848Z,9.47
2019-04-22T14:55:29.646Z,15.47
2019-04-22T14:57:57.015Z,10.07
2019-04-22T15:00:26.969Z,8.37
2019-04-22T15:02:57.547Z,12.90
2019-04-22T15:19:17.889Z,11.13
2019-04-22T15:21:47.761Z,11.87
2019-04-22T15:24:25.112Z,7.90
2019-04-22T15:26:58.588Z,7.13
2019-04-22T15:29:29.602Z,13.10
2019-04-22T15:31:59.979Z,11.30
2019-04-22T15:34:30.544Z,8.77
2019-04-22T15:37:02.160Z,9.40
2019-04-22T15:39:32.101Z,10.33
2019-04-22T15:42:11.765Z,13.00
2019-04-22T15:44:33.847Z,8.37
2019-04-22T15:47:04.837Z,11.63
2019-04-22T15:49:36.031Z,8.00
2019-04-22T15:52:07.794Z,6.80
2019-04-22T15:54:37.765Z,10.85
2019-04-22T15:57:08.915Z,10.70
2019-04-22T15:59:54.131Z,16.17
2019-04-22T16:02:10.494Z,9.20
2019-04-22T16:04:41.754Z,7.40
2019-04-22T16:07:12.807Z,13.40
2019-04-22T16:09:43.538Z,24.30
2019-04-22T16:12:22.696Z,8.03
2019-04-22T16:14:50.613Z,8.17
2019-04-22T16:17:16.981Z,13.13
2019-04-22T16:19:46.998Z,6.50
2019-04-22T16:22:19.732Z,6.07
2019-04-22T16:25:07.034Z,7.20
2019-04-22T16:27:38.414Z,8.33
2019-04-22T16:30:09.607Z,11.57
2019-04-22T16:32:41.375Z,5.67
2019-04-22T16:35:12.731Z,6.80
2019-04-22T16:37:42.930Z,5.43
2019-04-22T16:40:14.580Z,10.43
2019-04-22T16:42:51.490Z,7.70
2019-04-22T16:45:15.910Z,9.23
2019-04-22T16:47:45.928Z,12.90
2019-04-22T16:50:16.012Z,9.07
2019-04-22T16:52:46.269Z,7.60
2019-04-22T16:55:16.974Z,9.60
2019-04-22T16:57:48.268Z,10.57
2019-04-22T17:00:20.542Z,11.27
2019-04-22T17:03:10.823Z,11.87
2019-04-22T17:05:59.286Z,8.43
2019-04-22T17:08:30.617Z,13.10
2019-04-22T17:11:01.844Z,8.13
2019-04-22T17:13:33.978Z,9.07
2019-04-22T17:16:04.773Z,11.40
2019-04-22T17:18:35.190Z,9.80
2019-04-22T17:21:08.458Z,8.37
2019-04-22T17:23:37.993Z,10.60
2019-04-22T17:26:08.416Z,8.63
2019-04-22T17:28:39.533Z,9.87
2019-04-22T17:31:10.729Z,6.83
2019-04-22T17:33:41.171Z,6.93
2019-04-22T17:36:11.979Z,8.77
2019-04-22T17:38:51.979Z,7.53
2019-04-22T17:41:24.770Z,8.83
2019-04-22T17:44:15.296Z,8.83
2019-04-22T17:46:41.723Z,19.00
2019-04-22T17:49:33.982Z,12.40
2019-04-22T17:52:17.172Z,13.40
2019-04-22T17:54:51.898Z,18.50
2019-04-22T17:58:43.563Z,18.10
2019-04-22T18:01:09.394Z,13.87
2019-04-22T18:03:29.066Z,15.57
2019-04-22T18:05:58.028Z,19.43
2019-04-22T18:08:40.272Z,7.53
2019-04-22T18:11:23.851Z,7.00
2019-04-22T18:13:55.263Z,18.43
2019-04-22T18:16:18.154Z,6.87
2019-04-22T18:18:50.730Z,6.63
2019-04-22T18:21:13.329Z,11.73
2019-04-22T18:23:46.081Z,6.93
2019-04-22T18:26:20.473Z,7.03
2019-04-22T18:28:55.954Z,8.20
2019-04-22T18:31:17.484Z,10.03
2019-04-22T18:33:51.599Z,12.20
2019-04-22T18:36:22.837Z,12.80
2019-04-22T18:39:04.530Z,13.33
2019-04-22T18:41:29.911Z,9.10
2019-04-22T18:44:04.327Z,6.33
2019-04-22T18:46:34.385Z,9.20
2019-04-22T18:49:08.362Z,8.73
2019-04-22T18:51:42.390Z,10.20
2019-04-22T18:54:32.206Z,13.03
2019-04-22T18:57:07.105Z,13.93
2019-04-22T18:59:25.451Z,8.57
2019-04-22T19:02:02.586Z,10.83
2019-04-22T19:16:37.022Z,10.27
2019-04-22T19:29:57.664Z,9.20
2019-04-22T19:32:25.364Z,13.73
2019-04-22T19:34:57.474Z,11.33
2019-04-22T19:37:29.929Z,9.33
2019-04-22T19:40:09.608Z,7.83
2019-04-22T19:45:09.247Z,9.03
2019-04-22T19:47:56.594Z,7.63
2019-04-22T19:50:20.695Z,9.53
2019-04-22T19:52:39.994Z,9.03
2019-04-22T19:55:12.332Z,9.23
2019-04-22T19:57:43.143Z,12.67
2019-04-22T20:00:21.298Z,12.53
2019-04-22T20:03:16.628Z,10.13
2019-04-22T20:05:47.892Z,8.80
2019-04-22T20:08:21.334Z,9.93
2019-04-22T20:10:46.081Z,9.03
2019-04-22T20:13:28.794Z,9.43
2019-04-22T20:15:43.406Z,9.47
2019-04-22T20:20:58.501Z,9.60
2019-04-22T20:23:47.875Z,11.50
2019-04-22T20:26:23.531Z,10.47
2019-04-22T20:28:57.622Z,7.73
2019-04-22T20:31:30.092Z,13.00
2019-04-22T20:34:07.788Z,7.03
2019-04-22T20:36:52.296Z,7.27
2019-04-22T20:39:02.134Z,11.63
2019-04-22T20:41:33.844Z,7.87
2019-04-22T20:44:28.104Z,10.73
2019-04-22T20:46:56.132Z,13.73
2019-04-22T20:49:30.855Z,8.77
2019-04-22T20:52:06.380Z,6.10
2019-04-22T20:54:34.947Z,9.73
2019-04-22T20:57:03.842Z,9.07
2019-04-22T20:59:32.958Z,7.70
2019-04-22T21:02:03.695Z,13.20
2019-04-22T21:04:33.296Z,9.13
2019-04-22T21:07:05.085Z,8.40
2019-04-22T21:09:55.164Z,8.90
2019-04-22T21:13:07.003Z,5.93
2019-04-22T21:15:55.059Z,8.17
2019-04-22T21:18:13.583Z,9.73
2019-04-22T21:21:31.777Z,11.60
2019-04-22T21:23:56.958Z,6.73
2019-04-22T21:27:20.997Z,10.47
2019-04-22T21:29:40.300Z,7.57
2019-04-22T21:32:18.646Z,8.40
2019-04-22T21:34:52.674Z,7.90
2019-04-22T21:37:25.080Z,8.87
2019-04-22T21:39:56.648Z,7.10
2019-04-22T21:42:59.893Z,7.53
2019-04-22T21:46:11.752Z,7.80
2019-04-22T21:49:06.464Z,7.33
2019-04-22T21:52:24.941Z,5.63
2019-04-22T21:55:37.471Z,8.57
2019-04-22T21:58:38.114Z,4.77
2019-04-22T22:01:52.578Z,6.20
2019-04-22T22:04:32.206Z,11.87
2019-04-22T22:07:33.337Z,10.40
2019-04-22T22:21:47.405Z,7.13
2019-04-22T22:24:29.161Z,9.17
2019-04-22T22:27:18.796Z,7.43
2019-04-22T22:30:35.582Z,7.60
2019-04-22T22:32:51.435Z,10.83
2019-04-22T22:35:20.659Z,4.83
2019-04-22T22:37:50.218Z,6.77
2019-04-22T22:40:10.632Z,9.60
2019-04-22T22:42:38.776Z,7.70
2019-04-22T22:45:19.875Z,4.93
2019-04-22T22:48:23.923Z,5.20
2019-04-22T22:50:52.131Z,8.47
2019-04-22T22:53:57.086Z,6.00
2019-04-22T22:56:45.064Z,6.87
2019-04-22T22:59:11.178Z,5.77
2019-04-22T23:04:57.922Z,6.23
2019-04-22T23:07:44.297Z,6.53
2019-04-22T23:10:25.054Z,7.70
2019-04-22T23:13:08.116Z,5.87
2019-04-22T23:15:35.953Z,10.10
2019-04-22T23:17:51.862Z,7.00
2019-04-22T23:20:38.241Z,5.17
2019-04-22T23:23:44.919Z,7.63
2019-04-22T23:26:40.382Z,11.30
2019-04-22T23:29:18.308Z,6.13
2019-04-22T23:31:48.337Z,7.10
2019-04-22T23:34:39.348Z,6.50
2019-04-22T23:40:29.683Z,7.83
2019-04-22T23:43:03.903Z,10.53
2019-04-22T23:45:38.402Z,5.17
2019-04-22T23:48:00.928Z,10.47
2019-04-22T23:50:37.819Z,11.27
2019-04-22T23:53:42.365Z,6.10
2019-04-22T23:56:00.501Z,7.03
2019-04-22T23:58:47.095Z,7.10
